^^
Your Local Weather - Clay, NY Station Historical Data
Daily Summary for January 5, 2018 Units:  Both    English   Metric
« Previous Day
Next Day »
Daily Weekly Monthly Yearly Custom
  High: Low: Average:
Temperature: 8.7 °F /  -12.9 °C 1.9 °F /  -16.7 °C 4.6 °F /  -15.2 °C
Dew Point: 5.4 °F /  -14.8 °C -1.8 °F /  -18.8 °C 1 °F /  -17.2 °C
Humidity: 86% 80% 85%
Wind Speed: 7.0mph /  11.3km/h - 3.3mph /  5.3km/h
Wind Gust: 15.0mph /  24.1km/h - -
Wind- - WNW
Pressure: 30.02 in /  1016.5 hPa 29.70 in /  1005.6 hPa -
Precipitation: 0.00 in /  0 mm    
Historical Graphs
 
 
Tabular Data for January 5, 2018
Time Temperature Dew Point Pressure Wind Wind Speed Wind Gust Humidity Rainfall Rate (Hourly) solar
00:04 8.7 °F /  -12.9 °C 5.4 °F /  -14.8 °C 29.70in /  1005.6hPa NNW 2.0mph /  3.2km/h 2.0mph /  3.2km/h 86% 0.00in /  0mm 0 W/m2
00:12 8.4 °F /  -13.1 °C 4.8 °F /  -15.1 °C 29.70in /  1005.6hPa NW 3.0mph /  4.8km/h 3.0mph /  4.8km/h 85% 0.00in /  0mm 0 W/m2
00:18 8.2 °F /  -13.2 °C 4.6 °F /  -15.2 °C 29.70in /  1005.6hPa NW 3.0mph /  4.8km/h 6.0mph /  9.7km/h 85% 0.00in /  0mm 0 W/m2
00:24 8.1 °F /  -13.3 °C 4.5 °F /  -15.3 °C 29.70in /  1005.6hPa NW 3.0mph /  4.8km/h 5.0mph /  8km/h 85% 0.00in /  0mm 0 W/m2
00:32 7.9 °F /  -13.4 °C 4.3 °F /  -15.4 °C 29.70in /  1005.6hPa NW 2.0mph /  3.2km/h 2.0mph /  3.2km/h 85% 0.00in /  0mm 0 W/m2
00:38 7.8 °F /  -13.4 °C 4.2 °F /  -15.4 °C 29.70in /  1005.6hPa WNW 2.0mph /  3.2km/h 2.0mph /  3.2km/h 85% 0.00in /  0mm 0 W/m2
00:44 7.7 °F /  -13.5 °C 4.1 °F /  -15.5 °C 29.70in /  1005.6hPa NW 2.0mph /  3.2km/h 2.0mph /  3.2km/h 85% 0.00in /  0mm 0 W/m2
00:50 7.4 °F /  -13.7 °C 3.8 °F /  -15.7 °C 29.70in /  1005.6hPa NW 2.0mph /  3.2km/h 5.0mph /  8km/h 85% 0.00in /  0mm 0 W/m2
00:56 7.1 °F /  -13.8 °C 3.5 °F /  -15.8 °C 29.70in /  1005.6hPa NNW 3.0mph /  4.8km/h 5.0mph /  8km/h 85% 0.00in /  0mm 0 W/m2
01:02 6.9 °F /  -13.9 °C 3.3 °F /  -15.9 °C 29.70in /  1005.6hPa WNW 2.0mph /  3.2km/h 3.0mph /  4.8km/h 85% 0.00in /  0mm 0 W/m2
01:04 6.8 °F /  -14 °C 3.2 °F /  -16 °C 29.70in /  1005.6hPa WNW 2.0mph /  3.2km/h 3.0mph /  4.8km/h 85% 0.00in /  0mm 0 W/m2
01:10 6.6 °F /  -14.1 °C 3.0 °F /  -16.1 °C 29.70in /  1005.6hPa WNW 2.0mph /  3.2km/h 3.0mph /  4.8km/h 85% 0.00in /  0mm 0 W/m2
01:16 6.4 °F /  -14.2 °C 2.6 °F /  -16.3 °C 29.70in /  1005.6hPa West 2.0mph /  3.2km/h 4.0mph /  6.4km/h 84% 0.00in /  0mm 0 W/m2
01:22 6.4 °F /  -14.2 °C 2.6 °F /  -16.3 °C 29.70in /  1005.6hPa WNW 3.0mph /  4.8km/h 5.0mph /  8km/h 84% 0.00in /  0mm 0 W/m2
01:30 6.2 °F /  -14.3 °C 2.4 °F /  -16.4 °C 29.70in /  1005.6hPa WNW 2.0mph /  3.2km/h 2.0mph /  3.2km/h 84% 0.00in /  0mm 0 W/m2
01:36 6.1 °F /  -14.4 °C 2.3 °F /  -16.5 °C 29.70in /  1005.6hPa WNW 2.0mph /  3.2km/h 3.0mph /  4.8km/h 84% 0.00in /  0mm 0 W/m2
01:42 6.0 °F /  -14.4 °C 2.2 °F /  -16.6 °C 29.71in /  1006hPa NW 2.0mph /  3.2km/h 2.0mph /  3.2km/h 84% 0.00in /  0mm 0 W/m2
01:48 5.9 °F /  -14.5 °C 2.1 °F /  -16.6 °C 29.71in /  1006hPa WNW 2.0mph /  3.2km/h 2.0mph /  3.2km/h 84% 0.00in /  0mm 0 W/m2
01:54 5.8 °F /  -14.6 °C 2.0 °F /  -16.7 °C 29.71in /  1006hPa WNW 2.0mph /  3.2km/h 3.0mph /  4.8km/h 84% 0.00in /  0mm 0 W/m2
02:00 5.7 °F /  -14.6 °C 1.9 °F /  -16.7 °C 29.71in /  1006hPa WNW 2.0mph /  3.2km/h 2.0mph /  3.2km/h 84% 0.00in /  0mm 0 W/m2
02:06 5.7 °F /  -14.6 °C 1.9 °F /  -16.7 °C 29.72in /  1006.3hPa West 2.0mph /  3.2km/h 2.0mph /  3.2km/h 84% 0.00in /  0mm 0 W/m2
02:12 5.6 °F /  -14.7 °C 1.8 °F /  -16.8 °C 29.72in /  1006.3hPa NW 2.0mph /  3.2km/h 2.0mph /  3.2km/h 84% 0.00in /  0mm 0 W/m2
02:18 5.5 °F /  -14.7 °C 1.7 °F /  -16.8 °C 29.72in /  1006.3hPa NW 2.0mph /  3.2km/h 2.0mph /  3.2km/h 84% 0.00in /  0mm 0 W/m2
02:22 5.4 °F /  -14.8 °C 1.6 °F /  -16.9 °C 29.72in /  1006.3hPa WNW 2.0mph /  3.2km/h 3.0mph /  4.8km/h 84% 0.00in /  0mm 0 W/m2
02:28 5.3 °F /  -14.8 °C 1.5 °F /  -16.9 °C 29.72in /  1006.3hPa WNW 2.0mph /  3.2km/h 3.0mph /  4.8km/h 84% 0.00in /  0mm 0 W/m2
02:32 5.2 °F /  -14.9 °C 1.4 °F /  -17 °C 29.73in /  1006.7hPa WNW 1.0mph /  1.6km/h 2.0mph /  3.2km/h 84% 0.00in /  0mm 0 W/m2
02:38 5.0 °F /  -15 °C 1.2 °F /  -17.1 °C 29.73in /  1006.7hPa NW 2.0mph /  3.2km/h 5.0mph /  8km/h 84% 0.00in /  0mm 0 W/m2
02:44 4.9 °F /  -15.1 °C 1.1 °F /  -17.2 °C 29.73in /  1006.7hPa NW 2.0mph /  3.2km/h 2.0mph /  3.2km/h 84% 0.00in /  0mm 0 W/m2
02:50 4.8 °F /  -15.1 °C 1.0 °F /  -17.2 °C 29.73in /  1006.7hPa WNW 2.0mph /  3.2km/h 2.0mph /  3.2km/h 84% 0.00in /  0mm 0 W/m2
02:58 4.7 °F /  -15.2 °C 0.9 °F /  -17.3 °C 29.73in /  1006.7hPa WNW 2.0mph /  3.2km/h 3.0mph /  4.8km/h 84% 0.00in /  0mm 0 W/m2
03:04 4.6 °F /  -15.2 °C 0.8 °F /  -17.3 °C 29.73in /  1006.7hPa NW 3.0mph /  4.8km/h 3.0mph /  4.8km/h 84% 0.00in /  0mm 0 W/m2
03:10 4.5 °F /  -15.3 °C 0.7 °F /  -17.4 °C 29.73in /  1006.7hPa NW 3.0mph /  4.8km/h 3.0mph /  4.8km/h 84% 0.00in /  0mm 0 W/m2
03:16 4.3 °F /  -15.4 °C 0.5 °F /  -17.5 °C 29.73in /  1006.7hPa WNW 3.0mph /  4.8km/h 3.0mph /  4.8km/h 84% 0.00in /  0mm 0 W/m2
03:22 4.2 °F /  -15.4 °C 0.4 °F /  -17.6 °C 29.73in /  1006.7hPa WNW 3.0mph /  4.8km/h 3.0mph /  4.8km/h 84% 0.00in /  0mm 0 W/m2
03:30 3.9 °F /  -15.6 °C 0.1 °F /  -17.7 °C 29.73in /  1006.7hPa NW 2.0mph /  3.2km/h 2.0mph /  3.2km/h 84% 0.00in /  0mm 0 W/m2
03:36 3.7 °F /  -15.7 °C -0.1 °F /  -17.8 °C 29.74in /  1007hPa WNW 1.0mph /  1.6km/h 3.0mph /  4.8km/h 84% 0.00in /  0mm 0 W/m2
03:42 3.7 °F /  -15.7 °C -0.1 °F /  -17.8 °C 29.74in /  1007hPa WNW 1.0mph /  1.6km/h 1.0mph /  1.6km/h 84% 0.00in /  0mm 0 W/m2
03:50 3.7 °F /  -15.7 °C -0.1 °F /  -17.8 °C 29.74in /  1007hPa NW 1.0mph /  1.6km/h 2.0mph /  3.2km/h 84% 0.00in /  0mm 0 W/m2
03:56 3.7 °F /  -15.7 °C -0.1 °F /  -17.8 °C 29.74in /  1007hPa WNW 2.0mph /  3.2km/h 4.0mph /  6.4km/h 84% 0.00in /  0mm 0 W/m2
04:02 3.7 °F /  -15.7 °C -0.1 °F /  -17.8 °C 29.74in /  1007hPa WNW 3.0mph /  4.8km/h 5.0mph /  8km/h 84% 0.00in /  0mm 0 W/m2
04:08 3.6 °F /  -15.8 °C -0.2 °F /  -17.9 °C 29.75in /  1007.3hPa WNW 3.0mph /  4.8km/h 5.0mph /  8km/h 84% 0.00in /  0mm 0 W/m2
04:14 3.6 °F /  -15.8 °C -0.2 °F /  -17.9 °C 29.75in /  1007.3hPa WNW 2.0mph /  3.2km/h 3.0mph /  4.8km/h 84% 0.00in /  0mm 0 W/m2
04:22 3.6 °F /  -15.8 °C -0.2 °F /  -17.9 °C 29.75in /  1007.3hPa WNW 2.0mph /  3.2km/h 3.0mph /  4.8km/h 84% 0.00in /  0mm 0 W/m2
04:30 3.5 °F /  -15.8 °C -0.2 °F /  -17.9 °C 29.75in /  1007.3hPa NW 2.0mph /  3.2km/h 2.0mph /  3.2km/h 84% 0.00in /  0mm 0 W/m2
04:36 3.5 °F /  -15.8 °C -0.2 °F /  -17.9 °C 29.75in /  1007.3hPa WNW 2.0mph /  3.2km/h 3.0mph /  4.8km/h 84% 0.00in /  0mm 0 W/m2
04:42 3.4 °F /  -15.9 °C -0.3 °F /  -17.9 °C 29.75in /  1007.3hPa NW 2.0mph /  3.2km/h 4.0mph /  6.4km/h 84% 0.00in /  0mm 0 W/m2
04:50 3.3 °F /  -15.9 °C -0.4 °F /  -18 °C 29.75in /  1007.3hPa WNW 2.0mph /  3.2km/h 2.0mph /  3.2km/h 84% 0.00in /  0mm 0 W/m2
04:56 3.1 °F /  -16.1 °C -0.6 °F /  -18.1 °C 29.75in /  1007.3hPa NNW 3.0mph /  4.8km/h 4.0mph /  6.4km/h 84% 0.00in /  0mm 0 W/m2
05:02 2.9 °F /  -16.2 °C -0.8 °F /  -18.2 °C 29.76in /  1007.7hPa NW 3.0mph /  4.8km/h 4.0mph /  6.4km/h 84% 0.00in /  0mm 0 W/m2
05:08 2.8 °F /  -16.2 °C -0.9 °F /  -18.3 °C 29.76in /  1007.7hPa NW 3.0mph /  4.8km/h 4.0mph /  6.4km/h 84% 0.00in /  0mm 0 W/m2
05:24 2.5 °F /  -16.4 °C -1.2 °F /  -18.4 °C 29.76in /  1007.7hPa WNW 3.0mph /  4.8km/h 4.0mph /  6.4km/h 84% 0.00in /  0mm 0 W/m2
05:30 2.5 °F /  -16.4 °C -1.2 °F /  -18.4 °C 29.76in /  1007.7hPa NNW 2.0mph /  3.2km/h 2.0mph /  3.2km/h 84% 0.00in /  0mm 0 W/m2
05:36 2.5 °F /  -16.4 °C -1.2 °F /  -18.4 °C 29.77in /  1008hPa NW 2.0mph /  3.2km/h 3.0mph /  4.8km/h 84% 0.00in /  0mm 0 W/m2
05:42 2.4 °F /  -16.4 °C -1.3 °F /  -18.5 °C 29.77in /  1008hPa NW 2.0mph /  3.2km/h 3.0mph /  4.8km/h 84% 0.00in /  0mm 0 W/m2
05:48 2.4 °F /  -16.4 °C -1.3 °F /  -18.5 °C 29.77in /  1008hPa NW 2.0mph /  3.2km/h 3.0mph /  4.8km/h 84% 0.00in /  0mm 0 W/m2
05:54 2.4 °F /  -16.4 °C -1.3 °F /  -18.5 °C 29.78in /  1008.4hPa NW 2.0mph /  3.2km/h 2.0mph /  3.2km/h 84% 0.00in /  0mm 0 W/m2
06:00 2.4 °F /  -16.4 °C -1.3 °F /  -18.5 °C 29.78in /  1008.4hPa WNW 2.0mph /  3.2km/h 2.0mph /  3.2km/h 84% 0.00in /  0mm 0 W/m2
06:08 2.4 °F /  -16.4 °C -1.3 °F /  -18.5 °C 29.78in /  1008.4hPa WNW 2.0mph /  3.2km/h 2.0mph /  3.2km/h 84% 0.00in /  0mm 0 W/m2
06:14 2.4 °F /  -16.4 °C -1.3 °F /  -18.5 °C 29.78in /  1008.4hPa WNW 1.0mph /  1.6km/h 3.0mph /  4.8km/h 84% 0.00in /  0mm 0 W/m2
06:20 2.4 °F /  -16.4 °C -1.3 °F /  -18.5 °C 29.78in /  1008.4hPa NW 1.0mph /  1.6km/h 1.0mph /  1.6km/h 84% 0.00in /  0mm 0 W/m2
06:26 2.5 °F /  -16.4 °C -1.2 °F /  -18.4 °C 29.78in /  1008.4hPa NW 1.0mph /  1.6km/h 1.0mph /  1.6km/h 84% 0.00in /  0mm 0 W/m2
06:32 2.5 °F /  -16.4 °C -1.2 °F /  -18.4 °C 29.78in /  1008.4hPa WNW 1.0mph /  1.6km/h 4.0mph /  6.4km/h 84% 0.00in /  0mm 0 W/m2
06:34 2.5 °F /  -16.4 °C -1.2 °F /  -18.4 °C 29.78in /  1008.4hPa NW 2.0mph /  3.2km/h 4.0mph /  6.4km/h 84% 0.00in /  0mm 0 W/m2
06:40 2.7 °F /  -16.3 °C -1.0 °F /  -18.3 °C 29.79in /  1008.7hPa NW 2.0mph /  3.2km/h 2.0mph /  3.2km/h 84% 0.00in /  0mm 0 W/m2
06:50 2.8 °F /  -16.2 °C -0.9 °F /  -18.3 °C 29.79in /  1008.7hPa NW 2.0mph /  3.2km/h 2.0mph /  3.2km/h 84% 0.00in /  0mm 0 W/m2
06:56 2.9 °F /  -16.2 °C -0.8 °F /  -18.2 °C 29.79in /  1008.7hPa NW 2.0mph /  3.2km/h 2.0mph /  3.2km/h 84% 0.00in /  0mm 0 W/m2
07:02 2.8 °F /  -16.2 °C -0.9 °F /  -18.3 °C 29.80in /  1009hPa NW 1.0mph /  1.6km/h 3.0mph /  4.8km/h 84% 0.00in /  0mm 0 W/m2
07:08 2.6 °F /  -16.3 °C -1.1 °F /  -18.4 °C 29.80in /  1009hPa NW 2.0mph /  3.2km/h 5.0mph /  8km/h 84% 0.00in /  0mm 0 W/m2
07:14 2.5 °F /  -16.4 °C -1.2 °F /  -18.4 °C 29.80in /  1009hPa NNW 2.0mph /  3.2km/h 3.0mph /  4.8km/h 84% 0.00in /  0mm 0 W/m2
07:20 2.3 °F /  -16.5 °C -1.4 °F /  -18.6 °C 29.80in /  1009hPa NW 2.0mph /  3.2km/h 2.0mph /  3.2km/h 84% 0.00in /  0mm 0 W/m2
07:26 2.1 °F /  -16.6 °C -1.6 °F /  -18.7 °C 29.80in /  1009hPa NNW 2.0mph /  3.2km/h 2.0mph /  3.2km/h 84% 0.00in /  0mm 0 W/m2
07:32 2.0 °F /  -16.7 °C -1.7 °F /  -18.7 °C 29.81in /  1009.4hPa NNW 1.0mph /  1.6km/h 2.0mph /  3.2km/h 84% 0.00in /  0mm 0 W/m2
07:38 1.9 °F /  -16.7 °C -1.8 °F /  -18.8 °C 29.81in /  1009.4hPa NW 1.0mph /  1.6km/h 4.0mph /  6.4km/h 84% 0.00in /  0mm 0 W/m2
07:44 1.9 °F /  -16.7 °C -1.8 °F /  -18.8 °C 29.81in /  1009.4hPa NW 1.0mph /  1.6km/h 2.0mph /  3.2km/h 84% 0.00in /  0mm 0 W/m2
07:50 1.9 °F /  -16.7 °C -1.8 °F /  -18.8 °C 29.81in /  1009.4hPa NW 1.0mph /  1.6km/h 1.0mph /  1.6km/h 84% 0.00in /  0mm 0 W/m2
07:56 1.9 °F /  -16.7 °C -1.8 °F /  -18.8 °C 29.81in /  1009.4hPa NW 1.0mph /  1.6km/h 3.0mph /  4.8km/h 84% 0.00in /  0mm 5 W/m2
08:02 1.9 °F /  -16.7 °C -1.8 °F /  -18.8 °C 29.82in /  1009.7hPa NW 1.0mph /  1.6km/h 2.0mph /  3.2km/h 84% 0.00in /  0mm 5 W/m2
08:12 2.0 °F /  -16.7 °C -1.7 °F /  -18.7 °C 29.83in /  1010hPa North 1.0mph /  1.6km/h 2.0mph /  3.2km/h 84% 0.00in /  0mm 7 W/m2
08:18 2.0 °F /  -16.7 °C -1.7 °F /  -18.7 °C 29.83in /  1010hPa NW 1.0mph /  1.6km/h 3.0mph /  4.8km/h 84% 0.00in /  0mm 7 W/m2
08:26 2.1 °F /  -16.6 °C -1.6 °F /  -18.7 °C 29.83in /  1010hPa NNW 1.0mph /  1.6km/h 1.0mph /  1.6km/h 84% 0.00in /  0mm 12 W/m2
08:32 2.2 °F /  -16.6 °C -1.5 °F /  -18.6 °C 29.83in /  1010hPa NNW 1.0mph /  1.6km/h 1.0mph /  1.6km/h 84% 0.00in /  0mm 14 W/m2
08:38 2.4 °F /  -16.4 °C -1.3 °F /  -18.5 °C 29.83in /  1010hPa WNW 1.0mph /  1.6km/h 2.0mph /  3.2km/h 84% 0.00in /  0mm 16 W/m2
08:46 2.4 °F /  -16.4 °C -1.3 °F /  -18.5 °C 29.83in /  1010hPa WNW 1.0mph /  1.6km/h 2.0mph /  3.2km/h 84% 0.00in /  0mm 16 W/m2
08:54 2.6 °F /  -16.3 °C -1.1 °F /  -18.4 °C 29.84in /  1010.4hPa NNW 1.0mph /  1.6km/h 4.0mph /  6.4km/h 84% 0.00in /  0mm 19 W/m2
09:00 2.6 °F /  -16.3 °C -1.1 °F /  -18.4 °C 29.84in /  1010.4hPa NW 1.0mph /  1.6km/h 4.0mph /  6.4km/h 84% 0.00in /  0mm 21 W/m2
09:08 2.6 °F /  -16.3 °C -1.4 °F /  -18.6 °C 29.84in /  1010.4hPa NW 2.0mph /  3.2km/h 5.0mph /  8km/h 83% 0.00in /  0mm 30 W/m2
09:16 2.6 °F /  -16.3 °C -1.4 °F /  -18.6 °C 29.84in /  1010.4hPa WNW 2.0mph /  3.2km/h 6.0mph /  9.7km/h 83% 0.00in /  0mm 32 W/m2
09:22 2.8 °F /  -16.2 °C -1.2 °F /  -18.4 °C 29.84in /  1010.4hPa WNW 2.0mph /  3.2km/h 2.0mph /  3.2km/h 83% 0.00in /  0mm 35 W/m2
09:28 3.1 °F /  -16.1 °C -0.9 °F /  -18.3 °C 29.84in /  1010.4hPa West 2.0mph /  3.2km/h 3.0mph /  4.8km/h 83% 0.00in /  0mm 33 W/m2
09:34 3.4 °F /  -15.9 °C -0.6 °F /  -18.1 °C 29.84in /  1010.4hPa WNW 2.0mph /  3.2km/h 2.0mph /  3.2km/h 83% 0.00in /  0mm 40 W/m2
09:40 3.6 °F /  -15.8 °C -0.4 °F /  -18 °C 29.84in /  1010.4hPa NW 2.0mph /  3.2km/h 3.0mph /  4.8km/h 83% 0.00in /  0mm 40 W/m2
09:46 3.5 °F /  -15.8 °C -0.8 °F /  -18.2 °C 29.85in /  1010.7hPa WNW 3.0mph /  4.8km/h 4.0mph /  6.4km/h 82% 0.00in /  0mm 42 W/m2
09:54 3.5 °F /  -15.8 °C -0.8 °F /  -18.2 °C 29.85in /  1010.7hPa WNW 3.0mph /  4.8km/h 4.0mph /  6.4km/h 82% 0.00in /  0mm 37 W/m2
10:00 3.5 °F /  -15.8 °C -0.8 °F /  -18.2 °C 29.86in /  1011.1hPa NNW 3.0mph /  4.8km/h 3.0mph /  4.8km/h 82% 0.00in /  0mm 54 W/m2
10:06 3.7 °F /  -15.7 °C -0.6 °F /  -18.1 °C 29.86in /  1011.1hPa NW 3.0mph /  4.8km/h 5.0mph /  8km/h 82% 0.00in /  0mm 53 W/m2
10:18 3.9 °F /  -15.6 °C -0.4 °F /  -18 °C 29.86in /  1011.1hPa WNW 3.0mph /  4.8km/h 3.0mph /  4.8km/h 82% 0.00in /  0mm 70 W/m2
10:24 3.9 °F /  -15.6 °C -0.6 °F /  -18.1 °C 29.86in /  1011.1hPa NW 3.0mph /  4.8km/h 3.0mph /  4.8km/h 81% 0.00in /  0mm 79 W/m2
10:32 4.3 °F /  -15.4 °C -0.2 °F /  -17.9 °C 29.86in /  1011.1hPa WNW 4.0mph /  6.4km/h 4.0mph /  6.4km/h 81% 0.00in /  0mm 70 W/m2
10:34 4.4 °F /  -15.3 °C -0.1 °F /  -17.8 °C 29.86in /  1011.1hPa WNW 4.0mph /  6.4km/h 4.0mph /  6.4km/h 81% 0.00in /  0mm 74 W/m2
10:40 4.5 °F /  -15.3 °C 0.0 °F /  -17.8 °C 29.86in /  1011.1hPa WNW 3.0mph /  4.8km/h 3.0mph /  4.8km/h 81% 0.00in /  0mm 67 W/m2
10:50 3.8 °F /  -15.7 °C -1.0 °F /  -18.3 °C 29.86in /  1011.1hPa NW 4.0mph /  6.4km/h 4.0mph /  6.4km/h 80% 0.00in /  0mm 63 W/m2
10:56 4.0 °F /  -15.6 °C -0.5 °F /  -18.1 °C 29.86in /  1011.1hPa WNW 3.0mph /  4.8km/h 6.0mph /  9.7km/h 81% 0.00in /  0mm 79 W/m2
11:08 4.2 °F /  -15.4 °C -0.6 °F /  -18.1 °C 29.86in /  1011.1hPa WNW 5.0mph /  8km/h 8.0mph /  12.9km/h 80% 0.00in /  0mm 181 W/m2
11:14 4.4 °F /  -15.3 °C -0.1 °F /  -17.8 °C 29.86in /  1011.1hPa NW 5.0mph /  8km/h 6.0mph /  9.7km/h 81% 0.00in /  0mm 244 W/m2
11:20 5.2 °F /  -14.9 °C 0.6 °F /  -17.4 °C 29.86in /  1011.1hPa NW 5.0mph /  8km/h 6.0mph /  9.7km/h 81% 0.00in /  0mm 276 W/m2
11:28 5.4 °F /  -14.8 °C 0.6 °F /  -17.4 °C 29.86in /  1011.1hPa West 4.0mph /  6.4km/h 9.0mph /  14.5km/h 80% 0.00in /  0mm 271 W/m2
11:36 4.7 °F /  -15.2 °C 0.2 °F /  -17.7 °C 29.86in /  1011.1hPa WNW 5.0mph /  8km/h 7.0mph /  11.3km/h 81% 0.00in /  0mm 223 W/m2
11:42 4.6 °F /  -15.2 °C 0.3 °F /  -17.6 °C 29.86in /  1011.1hPa WNW 6.0mph /  9.7km/h 7.0mph /  11.3km/h 82% 0.00in /  0mm 186 W/m2
11:48 4.5 °F /  -15.3 °C 0.5 °F /  -17.5 °C 29.86in /  1011.1hPa West 6.0mph /  9.7km/h 8.0mph /  12.9km/h 83% 0.00in /  0mm 179 W/m2
11:54 4.4 °F /  -15.3 °C 0.4 °F /  -17.6 °C 29.86in /  1011.1hPa West 7.0mph /  11.3km/h 8.0mph /  12.9km/h 83% 0.00in /  0mm 179 W/m2
12:00 4.7 °F /  -15.2 °C 0.7 °F /  -17.4 °C 29.86in /  1011.1hPa WNW 6.0mph /  9.7km/h 6.0mph /  9.7km/h 83% 0.00in /  0mm 200 W/m2
12:06 5.1 °F /  -14.9 °C 1.1 °F /  -17.2 °C 29.86in /  1011.1hPa WNW 5.0mph /  8km/h 6.0mph /  9.7km/h 83% 0.00in /  0mm 241 W/m2
12:16 5.0 °F /  -15 °C 1.0 °F /  -17.2 °C 29.86in /  1011.1hPa West 6.0mph /  9.7km/h 7.0mph /  11.3km/h 83% 0.00in /  0mm 193 W/m2
12:22 5.3 °F /  -14.8 °C 1.3 °F /  -17.1 °C 29.85in /  1010.7hPa West 5.0mph /  8km/h 6.0mph /  9.7km/h 83% 0.00in /  0mm 202 W/m2
12:28 5.5 °F /  -14.7 °C 1.5 °F /  -16.9 °C 29.85in /  1010.7hPa West 5.0mph /  8km/h 10.0mph /  16.1km/h 83% 0.00in /  0mm 162 W/m2
12:34 5.4 °F /  -14.8 °C 1.6 °F /  -16.9 °C 29.86in /  1011.1hPa West 5.0mph /  8km/h 7.0mph /  11.3km/h 84% 0.00in /  0mm 181 W/m2
12:40 5.5 °F /  -14.7 °C 1.7 °F /  -16.8 °C 29.85in /  1010.7hPa WNW 5.0mph /  8km/h 5.0mph /  8km/h 84% 0.00in /  0mm 139 W/m2
12:46 5.3 °F /  -14.8 °C 1.3 °F /  -17.1 °C 29.85in /  1010.7hPa West 5.0mph /  8km/h 8.0mph /  12.9km/h 83% 0.00in /  0mm 176 W/m2
12:54 5.3 °F /  -14.8 °C 1.5 °F /  -16.9 °C 29.85in /  1010.7hPa West 6.0mph /  9.7km/h 7.0mph /  11.3km/h 84% 0.00in /  0mm 200 W/m2
13:00 5.4 °F /  -14.8 °C 1.6 °F /  -16.9 °C 29.85in /  1010.7hPa WNW 6.0mph /  9.7km/h 6.0mph /  9.7km/h 84% 0.00in /  0mm 121 W/m2
13:08 5.5 °F /  -14.7 °C 1.7 °F /  -16.8 °C 29.86in /  1011.1hPa WNW 5.0mph /  8km/h 7.0mph /  11.3km/h 84% 0.00in /  0mm 139 W/m2
13:20 5.3 °F /  -14.8 °C 1.5 °F /  -16.9 °C 29.86in /  1011.1hPa WNW 6.0mph /  9.7km/h 8.0mph /  12.9km/h 84% 0.00in /  0mm 107 W/m2
13:34 5.4 °F /  -14.8 °C 1.6 °F /  -16.9 °C 29.86in /  1011.1hPa West 6.0mph /  9.7km/h 9.0mph /  14.5km/h 84% 0.00in /  0mm 104 W/m2
13:42 5.3 °F /  -14.8 °C 1.5 °F /  -16.9 °C 29.86in /  1011.1hPa West 6.0mph /  9.7km/h 6.0mph /  9.7km/h 84% 0.00in /  0mm 95 W/m2
13:48 5.3 °F /  -14.8 °C 1.5 °F /  -16.9 °C 29.87in /  1011.4hPa WNW 6.0mph /  9.7km/h 7.0mph /  11.3km/h 84% 0.00in /  0mm 97 W/m2
13:54 5.4 °F /  -14.8 °C 1.6 °F /  -16.9 °C 29.86in /  1011.1hPa WNW 5.0mph /  8km/h 10.0mph /  16.1km/h 84% 0.00in /  0mm 91 W/m2
14:00 5.4 °F /  -14.8 °C 1.6 °F /  -16.9 °C 29.87in /  1011.4hPa NW 5.0mph /  8km/h 6.0mph /  9.7km/h 84% 0.00in /  0mm 88 W/m2
14:04 5.4 °F /  -14.8 °C 1.9 °F /  -16.7 °C 29.87in /  1011.4hPa West 5.0mph /  8km/h 8.0mph /  12.9km/h 85% 0.00in /  0mm 74 W/m2
14:14 5.5 °F /  -14.7 °C 2.0 °F /  -16.7 °C 29.87in /  1011.4hPa West 5.0mph /  8km/h 5.0mph /  8km/h 85% 0.00in /  0mm 76 W/m2
14:22 5.4 °F /  -14.8 °C 1.9 °F /  -16.7 °C 29.88in /  1011.7hPa NW 5.0mph /  8km/h 5.0mph /  8km/h 85% 0.00in /  0mm 56 W/m2
14:28 5.3 °F /  -14.8 °C 1.8 °F /  -16.8 °C 29.88in /  1011.7hPa WNW 5.0mph /  8km/h 5.0mph /  8km/h 85% 0.00in /  0mm 49 W/m2
14:34 5.3 °F /  -14.8 °C 1.8 °F /  -16.8 °C 29.88in /  1011.7hPa WSW 4.0mph /  6.4km/h 5.0mph /  8km/h 85% 0.00in /  0mm 44 W/m2
14:40 5.4 °F /  -14.8 °C 1.9 °F /  -16.7 °C 29.88in /  1011.7hPa WSW 4.0mph /  6.4km/h 6.0mph /  9.7km/h 85% 0.00in /  0mm 39 W/m2
14:46 4.9 °F /  -15.1 °C 1.4 °F /  -17 °C 29.88in /  1011.7hPa West 4.0mph /  6.4km/h 6.0mph /  9.7km/h 85% 0.00in /  0mm 33 W/m2
14:52 4.4 °F /  -15.3 °C 0.9 °F /  -17.3 °C 29.89in /  1012.1hPa WSW 5.0mph /  8km/h 5.0mph /  8km/h 85% 0.00in /  0mm 35 W/m2
15:00 4.2 °F /  -15.4 °C 0.7 °F /  -17.4 °C 29.89in /  1012.1hPa West 4.0mph /  6.4km/h 4.0mph /  6.4km/h 85% 0.00in /  0mm 30 W/m2
15:08 4.1 °F /  -15.5 °C 0.6 °F /  -17.4 °C 29.89in /  1012.1hPa West 4.0mph /  6.4km/h 4.0mph /  6.4km/h 85% 0.00in /  0mm 21 W/m2
15:14 4.0 °F /  -15.6 °C 0.5 °F /  -17.5 °C 29.89in /  1012.1hPa WNW 4.0mph /  6.4km/h 4.0mph /  6.4km/h 85% 0.00in /  0mm 19 W/m2
15:20 4.0 °F /  -15.6 °C 0.5 °F /  -17.5 °C 29.89in /  1012.1hPa WSW 4.0mph /  6.4km/h 7.0mph /  11.3km/h 85% 0.00in /  0mm 18 W/m2
15:24 4.1 °F /  -15.5 °C 0.6 °F /  -17.4 °C 29.89in /  1012.1hPa WSW 4.0mph /  6.4km/h 7.0mph /  11.3km/h 85% 0.00in /  0mm 14 W/m2
15:30 4.2 °F /  -15.4 °C 0.7 °F /  -17.4 °C 29.89in /  1012.1hPa WNW 4.0mph /  6.4km/h 4.0mph /  6.4km/h 85% 0.00in /  0mm 16 W/m2
15:36 4.3 °F /  -15.4 °C 0.8 °F /  -17.3 °C 29.90in /  1012.4hPa WNW 3.0mph /  4.8km/h 4.0mph /  6.4km/h 85% 0.00in /  0mm 12 W/m2
15:42 4.3 °F /  -15.4 °C 0.8 °F /  -17.3 °C 29.90in /  1012.4hPa WSW 3.0mph /  4.8km/h 6.0mph /  9.7km/h 85% 0.00in /  0mm 11 W/m2
15:48 4.4 °F /  -15.3 °C 0.9 °F /  -17.3 °C 29.90in /  1012.4hPa West 3.0mph /  4.8km/h 6.0mph /  9.7km/h 85% 0.00in /  0mm 7 W/m2
15:54 4.4 °F /  -15.3 °C 0.9 °F /  -17.3 °C 29.91in /  1012.8hPa West 3.0mph /  4.8km/h 3.0mph /  4.8km/h 85% 0.00in /  0mm 7 W/m2
16:00 4.4 °F /  -15.3 °C 0.9 °F /  -17.3 °C 29.91in /  1012.8hPa WSW 4.0mph /  6.4km/h 4.0mph /  6.4km/h 85% 0.00in /  0mm 5 W/m2
16:08 4.4 °F /  -15.3 °C 0.9 °F /  -17.3 °C 29.91in /  1012.8hPa West 3.0mph /  4.8km/h 5.0mph /  8km/h 85% 0.00in /  0mm 0 W/m2
16:14 4.4 °F /  -15.3 °C 1.1 °F /  -17.2 °C 29.91in /  1012.8hPa West 3.0mph /  4.8km/h 4.0mph /  6.4km/h 86% 0.00in /  0mm 0 W/m2
16:24 4.4 °F /  -15.3 °C 1.1 °F /  -17.2 °C 29.92in /  1013.1hPa West 3.0mph /  4.8km/h 4.0mph /  6.4km/h 86% 0.00in /  0mm 0 W/m2
16:28 4.4 °F /  -15.3 °C 1.1 °F /  -17.2 °C 29.92in /  1013.1hPa WNW 3.0mph /  4.8km/h 6.0mph /  9.7km/h 86% 0.00in /  0mm 0 W/m2
16:34 4.5 °F /  -15.3 °C 1.0 °F /  -17.2 °C 29.92in /  1013.1hPa West 3.0mph /  4.8km/h 3.0mph /  4.8km/h 85% 0.00in /  0mm 0 W/m2
16:40 4.5 °F /  -15.3 °C 1.0 °F /  -17.2 °C 29.92in /  1013.1hPa West 2.0mph /  3.2km/h 2.0mph /  3.2km/h 85% 0.00in /  0mm 0 W/m2
16:46 4.6 °F /  -15.2 °C 1.1 °F /  -17.2 °C 29.92in /  1013.1hPa West 3.0mph /  4.8km/h 6.0mph /  9.7km/h 85% 0.00in /  0mm 0 W/m2
16:54 4.6 °F /  -15.2 °C 1.1 °F /  -17.2 °C 29.92in /  1013.1hPa West 4.0mph /  6.4km/h 4.0mph /  6.4km/h 85% 0.00in /  0mm 0 W/m2
17:00 4.5 °F /  -15.3 °C 1.0 °F /  -17.2 °C 29.92in /  1013.1hPa WNW 4.0mph /  6.4km/h 4.0mph /  6.4km/h 85% 0.00in /  0mm 0 W/m2
17:06 4.5 °F /  -15.3 °C 1.0 °F /  -17.2 °C 29.93in /  1013.4hPa WNW 4.0mph /  6.4km/h 11.0mph /  17.7km/h 85% 0.00in /  0mm 0 W/m2
17:12 4.4 °F /  -15.3 °C 1.1 °F /  -17.2 °C 29.93in /  1013.4hPa SW 4.0mph /  6.4km/h 4.0mph /  6.4km/h 86% 0.00in /  0mm 0 W/m2
17:20 4.4 °F /  -15.3 °C 0.9 °F /  -17.3 °C 29.94in /  1013.8hPa WNW 3.0mph /  4.8km/h 7.0mph /  11.3km/h 85% 0.00in /  0mm 0 W/m2
17:28 4.4 °F /  -15.3 °C 0.9 °F /  -17.3 °C 29.94in /  1013.8hPa West 3.0mph /  4.8km/h 7.0mph /  11.3km/h 85% 0.00in /  0mm 0 W/m2
17:34 4.4 °F /  -15.3 °C 0.9 °F /  -17.3 °C 29.94in /  1013.8hPa WNW 3.0mph /  4.8km/h 3.0mph /  4.8km/h 85% 0.00in /  0mm 0 W/m2
17:40 4.4 °F /  -15.3 °C 1.1 °F /  -17.2 °C 29.94in /  1013.8hPa West 3.0mph /  4.8km/h 4.0mph /  6.4km/h 86% 0.00in /  0mm 0 W/m2
17:52 4.6 °F /  -15.2 °C 1.3 °F /  -17.1 °C 29.95in /  1014.1hPa West 3.0mph /  4.8km/h 3.0mph /  4.8km/h 86% 0.00in /  0mm 0 W/m2
18:02 4.7 °F /  -15.2 °C 1.4 °F /  -17 °C 29.95in /  1014.1hPa WNW 3.0mph /  4.8km/h 4.0mph /  6.4km/h 86% 0.00in /  0mm 0 W/m2
18:08 4.7 °F /  -15.2 °C 1.4 °F /  -17 °C 29.95in /  1014.1hPa West 3.0mph /  4.8km/h 4.0mph /  6.4km/h 86% 0.00in /  0mm 0 W/m2
18:14 4.8 °F /  -15.1 °C 1.5 °F /  -16.9 °C 29.96in /  1014.4hPa WNW 2.0mph /  3.2km/h 3.0mph /  4.8km/h 86% 0.00in /  0mm 0 W/m2
18:20 4.8 °F /  -15.1 °C 1.5 °F /  -16.9 °C 29.96in /  1014.4hPa West 2.0mph /  3.2km/h 2.0mph /  3.2km/h 86% 0.00in /  0mm 0 W/m2
18:26 4.9 °F /  -15.1 °C 1.6 °F /  -16.9 °C 29.96in /  1014.4hPa West 1.0mph /  1.6km/h 3.0mph /  4.8km/h 86% 0.00in /  0mm 0 W/m2
18:32 5.0 °F /  -15 °C 1.7 °F /  -16.8 °C 29.96in /  1014.4hPa West 2.0mph /  3.2km/h 4.0mph /  6.4km/h 86% 0.00in /  0mm 0 W/m2
18:38 5.2 °F /  -14.9 °C 1.9 °F /  -16.7 °C 29.96in /  1014.4hPa WSW 2.0mph /  3.2km/h 4.0mph /  6.4km/h 86% 0.00in /  0mm 0 W/m2
18:48 5.6 °F /  -14.7 °C 2.3 °F /  -16.5 °C 29.97in /  1014.8hPa NW 2.0mph /  3.2km/h 4.0mph /  6.4km/h 86% 0.00in /  0mm 0 W/m2
18:54 6.1 °F /  -14.4 °C 2.8 °F /  -16.2 °C 29.97in /  1014.8hPa WNW 3.0mph /  4.8km/h 4.0mph /  6.4km/h 86% 0.00in /  0mm 0 W/m2
18:56 6.2 °F /  -14.3 °C 2.9 °F /  -16.2 °C 29.97in /  1014.8hPa NW 3.0mph /  4.8km/h 4.0mph /  6.4km/h 86% 0.00in /  0mm 0 W/m2
19:02 6.5 °F /  -14.2 °C 3.2 °F /  -16 °C 29.97in /  1014.8hPa NW 4.0mph /  6.4km/h 4.0mph /  6.4km/h 86% 0.00in /  0mm 0 W/m2
19:08 6.7 °F /  -14.1 °C 3.4 °F /  -15.9 °C 29.97in /  1014.8hPa NW 4.0mph /  6.4km/h 8.0mph /  12.9km/h 86% 0.00in /  0mm 0 W/m2
19:14 6.8 °F /  -14 °C 3.5 °F /  -15.8 °C 29.98in /  1015.1hPa WNW 4.0mph /  6.4km/h 6.0mph /  9.7km/h 86% 0.00in /  0mm 0 W/m2
19:26 6.9 °F /  -13.9 °C 3.6 °F /  -15.8 °C 29.98in /  1015.1hPa NW 4.0mph /  6.4km/h 6.0mph /  9.7km/h 86% 0.00in /  0mm 0 W/m2
19:30 6.9 °F /  -13.9 °C 3.6 °F /  -15.8 °C 29.99in /  1015.5hPa WNW 4.0mph /  6.4km/h 4.0mph /  6.4km/h 86% 0.00in /  0mm 0 W/m2
19:36 6.9 °F /  -13.9 °C 3.6 °F /  -15.8 °C 29.98in /  1015.1hPa WNW 4.0mph /  6.4km/h 8.0mph /  12.9km/h 86% 0.00in /  0mm 0 W/m2
19:42 6.9 °F /  -13.9 °C 3.6 °F /  -15.8 °C 29.98in /  1015.1hPa NW 4.0mph /  6.4km/h 5.0mph /  8km/h 86% 0.00in /  0mm 0 W/m2
19:48 6.9 °F /  -13.9 °C 3.6 °F /  -15.8 °C 29.98in /  1015.1hPa NW 4.0mph /  6.4km/h 8.0mph /  12.9km/h 86% 0.00in /  0mm 0 W/m2
19:54 6.9 °F /  -13.9 °C 3.6 °F /  -15.8 °C 29.99in /  1015.5hPa WNW 5.0mph /  8km/h 5.0mph /  8km/h 86% 0.00in /  0mm 0 W/m2
20:00 6.8 °F /  -14 °C 3.5 °F /  -15.8 °C 29.99in /  1015.5hPa West 4.0mph /  6.4km/h 4.0mph /  6.4km/h 86% 0.00in /  0mm 0 W/m2
20:10 6.7 °F /  -14.1 °C 3.4 °F /  -15.9 °C 29.99in /  1015.5hPa NW 4.0mph /  6.4km/h 4.0mph /  6.4km/h 86% 0.00in /  0mm 0 W/m2
20:18 6.6 °F /  -14.1 °C 3.3 °F /  -15.9 °C 30.00in /  1015.8hPa WNW 5.0mph /  8km/h 6.0mph /  9.7km/h 86% 0.00in /  0mm 0 W/m2
20:24 6.5 °F /  -14.2 °C 3.2 °F /  -16 °C 30.00in /  1015.8hPa WNW 5.0mph /  8km/h 6.0mph /  9.7km/h 86% 0.00in /  0mm 0 W/m2
20:32 6.4 °F /  -14.2 °C 3.1 °F /  -16.1 °C 30.00in /  1015.8hPa NNW 4.0mph /  6.4km/h 7.0mph /  11.3km/h 86% 0.00in /  0mm 0 W/m2
20:38 6.3 °F /  -14.3 °C 3.0 °F /  -16.1 °C 30.00in /  1015.8hPa WNW 5.0mph /  8km/h 7.0mph /  11.3km/h 86% 0.00in /  0mm 0 W/m2
20:44 6.2 °F /  -14.3 °C 2.9 °F /  -16.2 °C 30.00in /  1015.8hPa NNW 6.0mph /  9.7km/h 10.0mph /  16.1km/h 86% 0.00in /  0mm 0 W/m2
20:50 6.1 °F /  -14.4 °C 2.8 °F /  -16.2 °C 30.00in /  1015.8hPa NW 6.0mph /  9.7km/h 6.0mph /  9.7km/h 86% 0.00in /  0mm 0 W/m2
20:58 6.0 °F /  -14.4 °C 2.7 °F /  -16.3 °C 30.00in /  1015.8hPa WNW 4.0mph /  6.4km/h 7.0mph /  11.3km/h 86% 0.00in /  0mm 0 W/m2
21:04 5.9 °F /  -14.5 °C 2.6 °F /  -16.3 °C 30.00in /  1015.8hPa WNW 4.0mph /  6.4km/h 6.0mph /  9.7km/h 86% 0.00in /  0mm 0 W/m2
21:12 5.7 °F /  -14.6 °C 2.4 °F /  -16.4 °C 30.01in /  1016.1hPa WNW 5.0mph /  8km/h 6.0mph /  9.7km/h 86% 0.00in /  0mm 0 W/m2
21:18 5.5 °F /  -14.7 °C 2.2 °F /  -16.6 °C 30.01in /  1016.1hPa WNW 5.0mph /  8km/h 6.0mph /  9.7km/h 86% 0.00in /  0mm 0 W/m2
21:24 5.4 °F /  -14.8 °C 2.1 °F /  -16.6 °C 30.01in /  1016.1hPa WNW 6.0mph /  9.7km/h 15.0mph /  24.1km/h 86% 0.00in /  0mm 0 W/m2
21:30 5.3 °F /  -14.8 °C 2.0 °F /  -16.7 °C 30.01in /  1016.1hPa WNW 6.0mph /  9.7km/h 6.0mph /  9.7km/h 86% 0.00in /  0mm 0 W/m2
21:36 5.2 °F /  -14.9 °C 1.9 °F /  -16.7 °C 30.01in /  1016.1hPa NW 5.0mph /  8km/h 8.0mph /  12.9km/h 86% 0.00in /  0mm 0 W/m2
21:46 5.2 °F /  -14.9 °C 1.9 °F /  -16.7 °C 30.01in /  1016.1hPa WNW 4.0mph /  6.4km/h 6.0mph /  9.7km/h 86% 0.00in /  0mm 0 W/m2
21:52 5.2 °F /  -14.9 °C 1.9 °F /  -16.7 °C 30.01in /  1016.1hPa West 4.0mph /  6.4km/h 6.0mph /  9.7km/h 86% 0.00in /  0mm 0 W/m2
21:58 5.1 °F /  -14.9 °C 1.8 °F /  -16.8 °C 30.01in /  1016.1hPa NW 4.0mph /  6.4km/h 7.0mph /  11.3km/h 86% 0.00in /  0mm 0 W/m2
22:04 5.1 °F /  -14.9 °C 1.8 °F /  -16.8 °C 30.01in /  1016.1hPa NW 4.0mph /  6.4km/h 7.0mph /  11.3km/h 86% 0.00in /  0mm 0 W/m2
22:10 5.1 °F /  -14.9 °C 1.8 °F /  -16.8 °C 30.01in /  1016.1hPa WNW 4.0mph /  6.4km/h 4.0mph /  6.4km/h 86% 0.00in /  0mm 0 W/m2
22:20 5.0 °F /  -15 °C 1.7 °F /  -16.8 °C 30.01in /  1016.1hPa NW 4.0mph /  6.4km/h 4.0mph /  6.4km/h 86% 0.00in /  0mm 0 W/m2
22:28 4.9 °F /  -15.1 °C 1.6 °F /  -16.9 °C 30.01in /  1016.1hPa NNW 6.0mph /  9.7km/h 8.0mph /  12.9km/h 86% 0.00in /  0mm 0 W/m2
22:36 4.8 °F /  -15.1 °C 1.5 °F /  -16.9 °C 30.02in /  1016.5hPa NW 6.0mph /  9.7km/h 8.0mph /  12.9km/h 86% 0.00in /  0mm 0 W/m2
22:44 4.7 °F /  -15.2 °C 1.4 °F /  -17 °C 30.02in /  1016.5hPa WNW 5.0mph /  8km/h 5.0mph /  8km/h 86% 0.00in /  0mm 0 W/m2
22:50 4.7 °F /  -15.2 °C 1.4 °F /  -17 °C 30.02in /  1016.5hPa NW 5.0mph /  8km/h 5.0mph /  8km/h 86% 0.00in /  0mm 0 W/m2
23:00 4.8 °F /  -15.1 °C 1.5 °F /  -16.9 °C 30.02in /  1016.5hPa NW 5.0mph /  8km/h 5.0mph /  8km/h 86% 0.00in /  0mm 0 W/m2
23:06 4.8 °F /  -15.1 °C 1.5 °F /  -16.9 °C 30.02in /  1016.5hPa NW 5.0mph /  8km/h 5.0mph /  8km/h 86% 0.00in /  0mm 0 W/m2
23:16 4.9 °F /  -15.1 °C 1.6 °F /  -16.9 °C 30.02in /  1016.5hPa NW 4.0mph /  6.4km/h 6.0mph /  9.7km/h 86% 0.00in /  0mm 0 W/m2
23:22 4.9 °F /  -15.1 °C 1.6 °F /  -16.9 °C 30.02in /  1016.5hPa NW 5.0mph /  8km/h 5.0mph /  8km/h 86% 0.00in /  0mm 0 W/m2
23:28 4.9 °F /  -15.1 °C 1.6 °F /  -16.9 °C 30.02in /  1016.5hPa NW 6.0mph /  9.7km/h 6.0mph /  9.7km/h 86% 0.00in /  0mm 0 W/m2
23:34 4.9 °F /  -15.1 °C 1.6 °F /  -16.9 °C 30.02in /  1016.5hPa WNW 5.0mph /  8km/h 6.0mph /  9.7km/h 86% 0.00in /  0mm 0 W/m2
23:42 4.9 °F /  -15.1 °C 1.6 °F /  -16.9 °C 30.02in /  1016.5hPa NW 5.0mph /  8km/h 6.0mph /  9.7km/h 86% 0.00in /  0mm 0 W/m2
23:48 4.9 °F /  -15.1 °C 1.6 °F /  -16.9 °C 30.02in /  1016.5hPa WNW 5.0mph /  8km/h 6.0mph /  9.7km/h 86% 0.00in /  0mm 0 W/m2
23:56 4.9 °F /  -15.1 °C 1.6 °F /  -16.9 °C 30.02in /  1016.5hPa NNW 5.0mph /  8km/h 9.0mph /  14.5km/h 86% 0.00in /  0mm 0 W/m2
Country Meadow, Clay, NY, USA
Compliments of Weather Underground - 2 mb